Time;durP1;ratioP1;P1;durP2;ratioP2;P2;SDS_P1;SDS_P2;PMS_P1;PMS_P2;Temp;Humidity;BMP_temperature;BMP_pressure;BME280_temperature;BME280_humidity;BME280_pressure;Samples;Min_cycle;Max_cycle;Signal;HPM_P1;HPM_P2
2022/12/15 00:40:59;;;;;;;5.45;3.25;;;;;;;7.74;70.19;102238.09;5024298;28;20060;-73
2022/12/15 00:43:28;;;;;;;6.85;3.38;;;;;;;7.70;69.71;102240.38;5024057;28;20045;-74
2022/12/15 00:48:44;;;;;;;5.72;3.40;;;;;;;7.55;70.48;102246.28;5026231;28;20682;-74
2022/12/15 00:51:12;;;;;;;5.55;3.20;;;;;;;7.48;71.58;102250.94;5024891;28;20424;-76
2022/12/15 01:21:25;;;;;;;6.75;4.80;;;;;;;6.79;75.99;102262.63;5023926;28;20069;-75
2022/12/15 01:23:54;;;;;;;7.65;4.72;;;;;;;6.74;76.33;102266.59;5027222;28;20048;-76
2022/12/15 01:26:23;;;;;;;6.68;4.35;;;;;;;6.66;76.38;102265.16;5025133;28;20037;-76
2022/12/15 01:28:51;;;;;;;5.25;3.60;;;;;;;6.61;76.60;102269.09;5027439;28;20145;-76
2022/12/15 01:31:20;;;;;;;7.10;3.30;;;;;;;6.49;76.54;102267.44;5020591;28;20547;-76
2022/12/15 01:33:48;;;;;;;4.32;3.20;;;;;;;6.43;77.54;102264.44;5025121;28;20462;-76
2022/12/15 01:36:17;;;;;;;6.28;3.90;;;;;;;6.41;78.56;102272.81;5022354;28;20045;-77
2022/12/15 01:38:47;;;;;;;6.68;3.67;;;;;;;6.36;77.82;102267.34;5024869;28;20558;-78
2022/12/15 01:41:14;;;;;;;5.28;3.30;;;;;;;6.30;78.64;102274.66;5025099;28;20723;-76
2022/12/15 01:43:43;;;;;;;7.32;3.45;;;;;;;6.26;79.01;102278.66;5022197;28;20049;-75
2022/12/15 01:46:13;;;;;;;9.65;4.10;;;;;;;6.24;78.70;102284.50;5024388;28;20120;-75
2022/12/15 01:48:45;;;;;;;5.50;3.85;;;;;;;6.20;78.59;102283.38;5021726;28;20048;-76
2022/12/15 01:51:25;;;;;;;8.32;3.80;;;;;;;6.18;78.65;102284.03;5024584;28;20045;-75
2022/12/15 01:54:00;;;;;;;4.30;3.17;;;;;;;6.15;78.87;102289.84;5024807;28;20053;-74
2022/12/15 01:56:32;;;;;;;9.27;3.78;;;;;;;6.11;78.32;102285.28;5020643;28;20553;-75
2022/12/15 01:59:03;;;;;;;9.35;3.72;;;;;;;6.05;78.46;102283.16;5017950;28;20040;-75
2022/12/15 02:01:32;;;;;;;7.45;3.88;;;;;;;6.01;79.14;102288.84;5023261;28;20052;-76
2022/12/15 02:04:01;;;;;;;5.00;3.22;;;;;;;5.98;78.57;102291.22;5024997;28;20388;-79
2022/12/15 02:06:31;;;;;;;6.40;3.65;;;;;;;5.95;79.02;102290.97;5024575;28;20049;-77
2022/12/15 02:09:02;;;;;;;6.55;3.55;;;;;;;5.93;79.44;102301.91;5023840;28;20111;-79
2022/12/15 02:11:58;;;;;;;5.10;3.28;;;;;;;5.77;79.00;102284.47;5020987;28;20100;-79
2022/12/15 02:14:43;;;;;;;6.95;3.30;;;;;;;5.80;79.33;102310.41;5018941;28;20053;-77
2022/12/15 02:17:23;;;;;;;7.05;3.58;;;;;;;5.77;79.83;102312.72;5025637;28;20045;-79
2022/12/15 02:20:27;;;;;;;9.20;3.78;;;;;;;5.69;78.91;102309.59;5019837;28;20107;-76
2022/12/15 02:23:44;;;;;;;6.68;3.10;;;;;;;5.62;79.17;102297.97;5025025;28;20548;-80
2022/12/15 02:26:45;;;;;;;8.68;3.70;;;;;;;5.54;79.60;102291.34;4969259;28;20038;-81
2022/12/15 02:29:41;;;;;;;5.57;2.67;;;;;;;5.41;80.39;102289.56;4999965;28;20042;-78
2022/12/15 02:32:14;;;;;;;6.05;3.28;;;;;;;5.36;80.73;102292.56;5004641;28;20061;-78
2022/12/15 02:34:45;;;;;;;5.72;3.55;;;;;;;5.33;80.78;102294.91;5003259;28;20037;-76
2022/12/15 02:37:18;;;;;;;7.93;3.65;;;;;;;5.29;80.10;102295.44;5000022;28;20503;-77
2022/12/15 02:39:47;;;;;;;10.07;4.68;;;;;;;5.18;80.99;102298.09;4993669;28;20046;-77
2022/12/15 02:42:15;;;;;;;6.88;4.00;;;;;;;5.15;81.29;102305.53;4994536;28;20503;-77
2022/12/15 02:44:49;;;;;;;9.00;4.30;;;;;;;5.13;81.46;102312.25;4997272;28;20061;-77
2022/12/15 02:47:32;;;;;;;5.78;3.22;;;;;;;5.10;82.42;102311.13;4995884;28;20038;-77
2022/12/15 02:50:19;;;;;;;7.10;3.38;;;;;;;5.06;82.59;102317.66;5008638;28;20415;-77
2022/12/15 02:53:02;;;;;;;7.30;3.30;;;;;;;4.99;82.93;102310.28;4995500;28;20039;-77
2022/12/15 02:55:43;;;;;;;9.23;4.03;;;;;;;4.94;82.55;102315.06;5000058;28;20050;-77
2022/12/15 02:58:21;;;;;;;9.50;3.78;;;;;;;4.91;83.68;102321.66;4998805;28;20042;-77
2022/12/15 03:00:56;;;;;;;9.70;6.35;;;;;;;4.89;83.03;102330.88;5002804;28;20159;-76
2022/12/15 03:03:29;;;;;;;6.75;4.25;;;;;;;4.86;83.30;102334.13;5001445;28;20640;-77
2022/12/15 03:06:01;;;;;;;7.35;3.90;;;;;;;4.81;83.82;102326.06;5002475;28;20053;-77
2022/12/15 03:08:30;;;;;;;7.85;4.55;;;;;;;4.81;84.06;102327.72;5002216;28;20038;-76
2022/12/15 03:10:59;;;;;;;6.90;3.72;;;;;;;4.76;85.08;102335.03;4997351;28;20646;-77
2022/12/15 03:13:28;;;;;;;5.43;3.42;;;;;;;4.75;86.24;102337.50;4994308;28;20482;-77
2022/12/15 03:15:57;;;;;;;6.38;3.58;;;;;;;4.72;86.80;102333.03;5007982;28;20639;-76
2022/12/15 03:18:27;;;;;;;5.05;2.60;;;;;;;4.71;86.84;102330.34;5001645;28;20054;-76
2022/12/15 03:20:56;;;;;;;11.63;4.13;;;;;;;4.68;86.46;102323.31;5008475;28;20480;-76
2022/12/15 03:23:25;;;;;;;3.78;2.83;;;;;;;4.65;86.29;102333.34;5004822;28;20052;-76
2022/12/15 03:25:54;;;;;;;7.18;3.72;;;;;;;4.61;86.71;102339.88;5009476;28;20057;-76
2022/12/15 03:28:23;;;;;;;8.55;3.97;;;;;;;4.57;85.68;102332.72;5006734;28;20056;-76
2022/12/15 03:30:52;;;;;;;5.70;3.30;;;;;;;4.50;86.40;102329.56;5006192;28;20064;-76
2022/12/15 03:33:20;;;;;;;5.93;3.83;;;;;;;4.48;86.05;102325.97;5003809;28;20046;-76
2022/12/15 03:35:51;;;;;;;11.38;5.15;;;;;;;4.45;86.82;102325.75;5006556;28;20052;-76
2022/12/15 03:38:20;;;;;;;8.60;4.57;;;;;;;4.44;86.90;102326.50;5001174;28;20061;-78
2022/12/15 03:40:48;;;;;;;9.07;4.28;;;;;;;4.38;86.64;102320.13;5010515;28;20049;-77
2022/12/15 03:43:17;;;;;;;6.25;3.47;;;;;;;4.35;86.10;102329.22;5007845;28;20042;-77
2022/12/15 03:45:46;;;;;;;8.95;3.92;;;;;;;4.28;85.99;102327.81;5004474;28;20049;-76
2022/12/15 03:48:14;;;;;;;8.13;3.50;;;;;;;4.23;87.38;102324.00;5002974;28;20273;-76
2022/12/15 03:50:43;;;;;;;10.50;4.20;;;;;;;4.23;87.24;102331.69;5001022;28;20045;-76
2022/12/15 03:53:13;;;;;;;7.30;4.13;;;;;;;4.20;86.84;102328.91;4994019;28;20456;-76
2022/12/15 03:55:42;;;;;;;6.63;4.20;;;;;;;4.17;87.21;102336.34;5007956;28;20046;-76
2022/12/15 03:58:11;;;;;;;14.40;7.90;;;;;;;4.14;86.63;102326.72;5001796;28;20057;-76
2022/12/15 04:00:47;;;;;;;12.63;7.43;;;;;;;4.11;87.78;102323.91;5004451;28;20052;-76
2022/12/15 04:03:16;;;;;;;7.25;4.13;;;;;;;4.09;86.65;102324.56;4998012;28;20471;-77
2022/12/15 04:05:44;;;;;;;7.30;4.75;;;;;;;4.03;86.98;102334.31;5002065;28;20082;-76
2022/12/15 04:08:15;;;;;;;8.90;5.03;;;;;;;3.98;87.51;102331.38;5008224;28;20618;-77
2022/12/15 04:10:44;;;;;;;9.85;4.45;;;;;;;3.93;86.95;102328.44;5004602;28;20039;-76
2022/12/15 04:13:13;;;;;;;10.40;5.70;;;;;;;3.91;88.28;102337.66;4998798;28;20050;-77
2022/12/15 04:15:42;;;;;;;7.82;4.15;;;;;;;3.87;88.75;102338.22;5006633;28;20073;-77
2022/12/15 04:18:11;;;;;;;15.88;6.45;;;;;;;3.86;89.17;102346.66;5006058;28;20229;-76
2022/12/15 04:20:39;;;;;;;11.43;6.45;;;;;;;3.83;89.20;102346.41;5008700;28;20084;-77
2022/12/15 04:23:08;;;;;;;13.82;7.05;;;;;;;3.82;92.08;102349.72;5003183;28;20038;-77
2022/12/15 05:32:12;;;;;;;7.03;2.30;;;;;;;4.08;93.40;102361.22;5008427;28;20053;-75
2022/12/15 05:34:40;;;;;;;5.28;2.58;;;;;;;4.07;93.53;102359.41;5007783;28;20053;-76
2022/12/15 05:37:09;;;;;;;6.05;2.90;;;;;;;4.05;93.24;102351.59;5006353;28;20050;-76
2022/12/15 05:39:37;;;;;;;6.13;2.50;;;;;;;4.08;93.31;102356.09;5013520;28;20046;-77
2022/12/15 05:42:06;;;;;;;4.80;2.35;;;;;;;4.08;93.65;102358.66;5010089;28;20132;-75
2022/12/15 05:44:35;;;;;;;4.30;2.65;;;;;;;4.09;93.34;102365.56;5007314;28;20105;-75
2022/12/15 05:47:04;;;;;;;11.80;2.83;;;;;;;4.11;93.32;102364.03;5008060;28;20054;-76
2022/12/15 05:49:34;;;;;;;5.35;2.92;;;;;;;4.12;94.09;102379.53;5008122;28;20054;-75
2022/12/15 05:52:03;;;;;;;5.53;3.08;;;;;;;4.14;94.19;102389.88;5007033;28;20053;-75
2022/12/15 05:54:31;;;;;;;5.00;2.63;;;;;;;4.11;94.25;102389.63;5007212;28;21160;-75
2022/12/15 05:57:00;;;;;;;3.13;2.42;;;;;;;4.10;94.73;102393.88;5006852;28;20046;-75
2022/12/15 05:59:29;;;;;;;5.45;2.70;;;;;;;4.12;93.51;102386.28;5002137;28;20046;-73
2022/12/15 06:01:57;;;;;;;4.00;2.50;;;;;;;4.14;92.44;102395.88;5006318;28;20049;-74
2022/12/15 06:04:26;;;;;;;4.78;2.50;;;;;;;4.16;92.49;102389.22;5005132;28;20058;-74
2022/12/15 06:06:56;;;;;;;5.60;2.70;;;;;;;4.16;91.98;102384.09;5005951;28;20049;-75
2022/12/15 06:09:25;;;;;;;4.10;2.47;;;;;;;4.16;91.48;102390.91;5005219;28;20053;-75
2022/12/15 06:11:53;;;;;;;3.65;2.40;;;;;;;4.15;91.89;102391.69;5008197;28;20038;-76
2022/12/15 06:14:22;;;;;;;5.28;2.88;;;;;;;4.14;91.77;102389.88;5007230;28;20524;-75
2022/12/15 06:16:51;;;;;;;4.13;1.98;;;;;;;4.14;92.08;102395.88;5003280;28;20108;-78
2022/12/15 06:19:20;;;;;;;4.85;2.65;;;;;;;4.16;91.81;102393.47;5009562;28;20055;-75
2022/12/15 06:21:49;;;;;;;3.42;2.20;;;;;;;4.08;92.28;102392.84;5007995;28;20042;-74
2022/12/15 06:24:19;;;;;;;5.75;3.00;;;;;;;4.06;92.52;102396.94;5007977;28;20050;-75
2022/12/15 06:26:48;;;;;;;4.28;2.50;;;;;;;4.06;92.15;102399.50;5006981;28;20038;-75
2022/12/15 06:29:16;;;;;;;5.40;2.28;;;;;;;4.05;91.80;102399.38;5009987;28;20512;-74
2022/12/15 06:31:46;;;;;;;4.47;2.50;;;;;;;3.98;92.11;102392.84;5009544;28;20054;-75
2022/12/15 06:34:17;;;;;;;5.28;2.60;;;;;;;3.89;92.78;102403.22;5005787;28;20075;-75
2022/12/15 06:36:46;;;;;;;4.18;2.83;;;;;;;3.83;93.32;102412.09;5003446;28;20058;-79
2022/12/15 06:39:16;;;;;;;7.32;2.70;;;;;;;3.78;92.64;102420.28;5010370;28;20049;-76
2022/12/15 06:41:46;;;;;;;4.50;2.67;;;;;;;3.75;93.28;102407.19;5007529;28;20046;-76
2022/12/15 06:44:16;;;;;;;4.57;2.00;;;;;;;3.73;92.25;102415.53;5006137;28;20042;-75
2022/12/15 06:46:46;;;;;;;4.57;2.40;;;;;;;3.66;93.09;102410.66;5004795;28;20045;-78
2022/12/15 06:49:15;;;;;;;5.50;2.65;;;;;;;3.63;93.10;102412.97;5009639;28;20057;-80
2022/12/15 06:51:43;;;;;;;4.65;2.60;;;;;;;3.58;92.86;102425.38;5013420;28;20049;-82
2022/12/15 06:54:12;;;;;;;5.53;2.72;;;;;;;3.52;92.93;102422.28;5010154;28;20069;-79
2022/12/15 06:56:41;;;;;;;5.35;2.55;;;;;;;3.48;93.40;102428.84;5011911;28;20058;-79
2022/12/15 06:59:12;;;;;;;3.72;2.63;;;;;;;3.46;92.98;102435.50;5009386;28;20511;-78
2022/12/15 07:01:42;;;;;;;4.45;2.92;;;;;;;3.42;92.61;102433.44;5010493;28;20091;-77
2022/12/15 07:04:10;;;;;;;6.30;2.58;;;;;;;3.35;93.17;102436.22;5003297;28;20137;-79
2022/12/15 07:06:41;;;;;;;3.53;2.28;;;;;;;3.32;93.60;102438.50;5010283;28;20519;-78
2022/12/15 07:09:15;;;;;;;5.68;2.40;;;;;;;3.33;93.10;102437.75;5010222;28;20049;-79
2022/12/15 07:11:45;;;;;;;5.72;2.25;;;;;;;3.32;93.27;102436.88;5009839;28;20171;-79
2022/12/15 07:14:15;;;;;;;5.68;2.67;;;;;;;3.31;93.63;102432.50;5013165;28;20062;-78
2022/12/15 07:16:44;;;;;;;6.25;2.60;;;;;;;3.29;93.40;102433.13;5010206;28;20089;-79
2022/12/15 07:19:13;;;;;;;4.53;2.63;;;;;;;3.19;92.90;102421.22;5010627;28;20133;-78
2022/12/15 07:21:42;;;;;;;3.80;2.22;;;;;;;3.23;92.05;102430.03;5009302;28;20496;-78
2022/12/15 07:24:12;;;;;;;3.38;2.47;;;;;;;3.19;93.17;102418.69;5011872;28;20080;-79
2022/12/15 07:26:41;;;;;;;4.30;2.40;;;;;;;3.11;93.89;102420.56;5009131;28;20045;-79
2022/12/15 07:29:10;;;;;;;4.78;2.97;;;;;;;3.08;95.02;102430.53;5021226;28;20058;-77
2022/12/15 07:31:41;;;;;;;4.95;2.83;;;;;;;3.05;93.83;102424.28;5024210;28;20514;-79
2022/12/15 07:34:12;;;;;;;6.57;3.00;;;;;;;3.04;92.97;102423.34;5026528;28;20049;-79
2022/12/15 07:36:41;;;;;;;5.68;2.80;;;;;;;3.01;93.20;102422.22;5026973;28;20479;-79
2022/12/15 07:39:09;;;;;;;5.03;2.80;;;;;;;2.97;93.32;102415.91;5029320;28;20077;-79
2022/12/15 07:41:39;;;;;;;2.78;2.22;;;;;;;2.99;93.17;102429.72;5027006;28;20513;-79
2022/12/15 07:44:09;;;;;;;5.30;2.92;;;;;;;2.98;92.73;102419.34;5028998;28;20049;-79
2022/12/15 07:46:37;;;;;;;5.05;2.88;;;;;;;2.94;91.39;102403.75;5027241;28;20050;-78
2022/12/15 07:49:07;;;;;;;3.55;2.33;;;;;;;2.92;93.36;102401.84;5026047;28;20050;-79
2022/12/15 07:51:36;;;;;;;4.80;2.92;;;;;;;2.89;92.14;102401.59;5029518;28;20487;-78
2022/12/15 07:54:05;;;;;;;4.90;2.75;;;;;;;2.87;92.44;102404.00;5025444;28;20053;-80
2022/12/15 07:56:34;;;;;;;5.85;3.03;;;;;;;2.88;92.68;102415.13;5021967;28;20069;-78
2022/12/15 07:59:02;;;;;;;5.85;2.50;;;;;;;2.85;91.61;102415.75;5026854;28;20049;-78
2022/12/15 08:01:31;;;;;;;5.68;3.00;;;;;;;2.83;91.54;102422.38;5025901;28;20050;-78
2022/12/15 08:04:00;;;;;;;4.22;2.38;;;;;;;2.81;91.83;102436.69;5027754;28;20712;-78
2022/12/15 08:06:30;;;;;;;4.38;2.63;;;;;;;2.78;91.56;102438.09;5026796;28;20038;-78
2022/12/15 08:08:59;;;;;;;5.68;3.00;;;;;;;2.76;91.82;102437.94;5023040;28;20882;-78
2022/12/15 08:11:27;;;;;;;5.40;2.28;;;;;;;2.73;90.72;102441.13;5022715;28;21158;-78
2022/12/15 08:13:56;;;;;;;3.33;2.33;;;;;;;2.68;91.58;102447.50;5027233;28;20792;-78
2022/12/15 08:16:25;;;;;;;5.28;2.65;;;;;;;2.63;92.40;102446.19;5027197;28;20053;-79
2022/12/15 08:18:55;;;;;;;5.53;2.63;;;;;;;2.61;90.49;102434.03;5027966;28;20037;-79
2022/12/15 08:21:24;;;;;;;4.60;2.40;;;;;;;2.57;91.17;102432.88;5027577;28;20724;-79
2022/12/15 08:23:54;;;;;;;4.65;2.10;;;;;;;2.54;90.95;102424.94;5028823;28;20079;-78
2022/12/15 08:26:23;;;;;;;3.20;2.03;;;;;;;2.49;90.86;102426.19;5032920;28;20053;-78
2022/12/15 08:28:52;;;;;;;4.65;2.20;;;;;;;2.44;91.99;102432.56;5030559;28;20053;-78
2022/12/15 08:31:23;;;;;;;3.42;2.30;;;;;;;2.39;94.50;102429.59;5028316;28;20056;-80
2022/12/15 08:33:52;;;;;;;3.35;1.75;;;;;;;2.33;95.69;102433.25;5025347;28;20067;-79
2022/12/15 08:36:21;;;;;;;4.45;1.85;;;;;;;2.25;95.61;102430.91;5029252;28;20431;-79
2022/12/15 08:38:49;;;;;;;3.35;2.03;;;;;;;2.25;98.22;102420.69;5031009;28;20064;-82
2022/12/15 08:41:22;;;;;;;4.88;2.30;;;;;;;2.18;97.66;102420.91;5030215;28;20072;-78
2022/12/15 08:43:52;;;;;;;4.65;2.00;;;;;;;2.16;98.70;102421.53;5029680;28;20049;-78
2022/12/15 08:46:22;;;;;;;3.38;2.20;;;;;;;2.13;98.85;102417.06;5019203;28;20050;-80
2022/12/15 08:48:51;;;;;;;4.00;2.17;;;;;;;2.14;98.49;102418.84;5028626;28;20049;-79
2022/12/15 08:51:21;;;;;;;3.65;1.63;;;;;;;2.14;99.17;102416.28;5027336;28;20113;-80
2022/12/15 08:53:49;;;;;;;3.17;1.80;;;;;;;2.13;98.61;102408.47;5028405;28;20633;-79
2022/12/15 08:56:21;;;;;;;5.75;2.67;;;;;;;2.07;98.66;102409.72;5028333;28;20060;-78
2022/12/15 08:58:51;;;;;;;3.95;2.00;;;;;;;2.09;98.95;102412.41;5029813;28;20043;-81
2022/12/15 09:01:21;;;;;;;3.72;2.38;;;;;;;2.06;98.68;102409.56;5029178;28;20045;-79
2022/12/15 09:03:50;;;;;;;5.85;2.47;;;;;;;2.08;98.86;102413.16;5023715;28;20053;-78
2022/12/15 09:06:21;;;;;;;4.22;2.58;;;;;;;2.09;98.02;102410.75;5027931;28;20049;-78
2022/12/15 09:08:49;;;;;;;3.53;1.95;;;;;;;2.12;97.62;102417.78;5027298;28;20430;-78
2022/12/15 09:11:18;;;;;;;4.88;2.40;;;;;;;2.13;97.27;102414.50;5027601;28;20046;-77
2022/12/15 09:13:48;;;;;;;4.53;2.38;;;;;;;2.18;96.51;102402.16;5027198;28;20049;-79
2022/12/15 09:16:18;;;;;;;5.97;2.75;;;;;;;2.19;95.69;102393.72;5034614;28;20053;-80
2022/12/15 09:18:49;;;;;;;7.45;2.55;;;;;;;2.17;95.52;102403.78;5026247;28;20459;-80
2022/12/15 09:21:21;;;;;;;4.47;2.10;;;;;;;2.16;95.90;102390.88;5026885;28;20082;-80
2022/12/15 09:23:50;;;;;;;3.40;1.95;;;;;;;2.17;95.78;102392.66;5027152;28;20049;-79
2022/12/15 09:26:20;;;;;;;4.50;2.60;;;;;;;2.14;95.56;102392.41;5026087;28;20046;-78
2022/12/15 09:28:51;;;;;;;4.22;2.15;;;;;;;2.15;97.11;102386.53;5028594;28;21129;-79
2022/12/15 09:31:21;;;;;;;2.53;1.90;;;;;;;2.17;96.99;102391.00;5028841;28;20061;-79
2022/12/15 09:33:51;;;;;;;4.05;1.88;;;;;;;2.18;98.30;102395.38;5029065;28;20042;-80
2022/12/15 09:36:21;;;;;;;3.38;1.83;;;;;;;2.20;97.65;102401.50;5024661;28;20058;-79
2022/12/15 09:38:50;;;;;;;3.28;1.90;;;;;;;2.26;98.40;102412.25;5027860;28;20056;-80
2022/12/15 09:41:24;;;;;;;4.00;2.30;;;;;;;2.20;98.46;102404.06;5027632;28;20099;-79
2022/12/15 09:43:58;;;;;;;3.13;1.85;;;;;;;2.34;99.34;102423.19;5027578;28;20064;-79
2022/12/15 09:46:48;;;;;;;2.83;2.20;;;;;;;2.44;100.00;102427.44;5027087;28;20049;-80
2022/12/15 09:49:26;;;;;;;4.03;1.95;;;;;;;2.55;99.71;102434.41;5027059;28;20045;-78
2022/12/15 09:52:01;;;;;;;3.45;2.25;;;;;;;2.63;98.87;102433.41;5023851;28;20049;-80
2022/12/15 09:54:33;;;;;;;5.45;2.10;;;;;;;2.72;98.34;102431.66;5024598;28;20045;-78
2022/12/15 09:57:08;;;;;;;5.15;2.72;;;;;;;2.80;98.35;102437.47;5027786;28;20049;-78
2022/12/15 09:59:49;;;;;;;4.18;2.40;;;;;;;2.90;98.03;102434.03;5026083;28;20049;-79
2022/12/15 10:02:34;;;;;;;2.88;1.80;;;;;;;2.96;96.61;102444.81;5028400;28;20053;-80
2022/12/15 10:05:12;;;;;;;3.88;2.10;;;;;;;3.02;96.39;102435.09;5026624;28;20049;-78
2022/12/15 10:07:45;;;;;;;3.85;1.90;;;;;;;3.06;94.51;102442.28;5029991;28;20037;-78
2022/12/15 10:10:23;;;;;;;3.45;1.80;;;;;;;3.08;94.96;102444.97;5024031;28;20052;-79
2022/12/15 10:12:55;;;;;;;2.58;1.50;;;;;;;3.12;94.16;102436.81;5026086;28;20393;-78
2022/12/15 10:15:27;;;;;;;4.85;1.75;;;;;;;3.13;93.75;102439.47;5023819;28;20073;-79
2022/12/15 10:18:04;;;;;;;3.08;1.88;;;;;;;3.19;94.05;102443.38;5027941;28;20049;-78
2022/12/15 10:20:34;;;;;;;3.80;2.40;;;;;;;3.20;92.83;102440.03;5022922;28;20045;-79
2022/12/15 10:23:11;;;;;;;3.58;2.13;;;;;;;3.21;93.33;102446.91;5026221;28;20064;-77
2022/12/15 10:25:40;;;;;;;2.38;1.67;;;;;;;3.22;93.21;102444.50;5027635;28;20613;-78
2022/12/15 10:28:24;;;;;;;4.65;2.17;;;;;;;3.22;93.23;102441.94;5027307;28;20507;-77
2022/12/15 10:31:01;;;;;;;3.72;1.88;;;;;;;3.25;92.41;102448.97;5004544;28;20707;-79
2022/12/15 10:33:36;;;;;;;2.53;1.52;;;;;;;3.28;92.25;102446.72;5003731;28;20041;-78
2022/12/15 10:36:11;;;;;;;2.50;1.52;;;;;;;3.28;91.36;102447.59;5007155;28;20050;-80
2022/12/15 10:38:44;;;;;;;2.88;1.80;;;;;;;3.29;91.42;102446.81;5003280;28;20056;-80
2022/12/15 10:41:14;;;;;;;3.45;1.65;;;;;;;3.29;91.99;102435.69;5007700;28;20061;-80
2022/12/15 10:43:44;;;;;;;3.10;1.83;;;;;;;3.31;91.43;102434.16;5007691;28;20109;-80
2022/12/15 10:46:17;;;;;;;2.28;1.50;;;;;;;3.31;91.53;102423.94;5005088;28;20058;-79
2022/12/15 10:48:47;;;;;;;2.50;1.65;;;;;;;3.32;91.61;102425.72;5006471;28;20507;-79
2022/12/15 10:51:25;;;;;;;2.15;1.48;;;;;;;3.32;91.22;102430.84;5004459;28;20062;-78
2022/12/15 10:53:55;;;;;;;4.15;1.80;;;;;;;3.33;90.85;102424.97;5005296;28;20038;-78
2022/12/15 10:56:27;;;;;;;3.05;1.70;;;;;;;3.30;90.89;102423.03;5002670;28;20051;-78
2022/12/15 10:58:57;;;;;;;2.97;1.73;;;;;;;3.30;90.96;102411.94;5005478;28;20081;-78
2022/12/15 11:01:29;;;;;;;3.92;2.10;;;;;;;3.28;90.27;102403.22;5005741;28;20261;-78
2022/12/15 11:03:58;;;;;;;2.42;1.50;;;;;;;3.26;89.45;102407.31;5007988;28;20056;-81
2022/12/15 11:06:31;;;;;;;2.72;1.65;;;;;;;3.25;89.65;102419.22;5006819;28;20057;-80
2022/12/15 11:09:09;;;;;;;2.20;1.52;;;;;;;3.22;89.31;102420.59;5008236;28;20057;-79
2022/12/15 11:14:44;;;;;;;3.08;1.90;;;;;;;3.14;89.64;102420.84;5008314;28;20049;-80
2022/12/15 11:17:18;;;;;;;3.90;2.05;;;;;;;3.10;90.48;102429.00;5006397;28;20137;-78
2022/12/15 11:19:52;;;;;;;1.88;1.30;;;;;;;3.07;89.90;102417.59;5007099;28;20720;-79
2022/12/15 11:22:30;;;;;;;2.88;1.38;;;;;;;3.07;90.47;102426.19;5005858;28;20054;-80
2022/12/15 11:25:05;;;;;;;3.50;2.00;;;;;;;3.09;90.54;102427.22;5004961;28;20458;-78
2022/12/15 11:27:37;;;;;;;2.97;1.67;;;;;;;3.12;90.10;102424.91;5006507;28;20627;-78
2022/12/15 11:30:13;;;;;;;2.13;1.25;;;;;;;3.16;88.74;102423.50;5028256;28;20578;-82
2022/12/15 11:32:47;;;;;;;3.97;1.92;;;;;;;3.20;89.14;102429.78;5028442;28;20041;-79
2022/12/15 11:35:19;;;;;;;2.42;1.75;;;;;;;3.22;88.44;102428.25;5025243;28;20053;-77
2022/12/15 11:38:03;;;;;;;2.33;1.67;;;;;;;3.25;88.58;102425.97;5032240;28;20494;-79
2022/12/15 11:40:38;;;;;;;2.90;1.60;;;;;;;3.23;88.50;102419.81;5020878;28;20057;-79
2022/12/15 11:43:52;;;;;;;3.33;1.58;;;;;;;3.26;88.14;102430.31;5025920;28;20455;-80
2022/12/15 11:46:23;;;;;;;3.38;1.90;;;;;;;3.26;88.67;102418.44;5009641;28;20519;-79
2022/12/15 11:49:23;;;;;;;3.00;1.95;;;;;;;3.27;88.58;102406.53;5028270;28;20652;-81
2022/12/15 11:52:03;;;;;;;4.18;2.13;;;;;;;3.27;88.19;102416.75;4983689;28;20045;-79
2022/12/15 11:54:39;;;;;;;3.47;1.73;;;;;;;3.28;88.45;102416.91;5024897;28;20056;-80
2022/12/15 11:57:32;;;;;;;5.13;1.65;;;;;;;3.29;87.67;102415.22;5022076;28;20490;-80
2022/12/15 12:00:07;;;;;;;2.75;1.90;;;;;;;3.29;87.99;102408.44;5024553;28;20578;-80
2022/12/15 12:02:50;;;;;;;5.22;2.00;;;;;;;3.31;87.47;102413.69;5029107;28;20704;-79
2022/12/15 12:05:40;;;;;;;3.20;1.77;;;;;;;3.31;88.57;102413.69;5028451;28;20125;-82
2022/12/15 12:08:24;;;;;;;3.58;1.55;;;;;;;3.31;88.42;102413.69;5026018;28;20045;-81
2022/12/15 12:11:00;;;;;;;4.07;2.00;;;;;;;3.29;87.75;102405.88;5029578;28;20518;-81
2022/12/15 12:13:37;;;;;;;5.32;1.67;;;;;;;3.29;87.60;102408.44;5029259;28;20065;-80
2022/12/15 12:16:15;;;;;;;3.17;1.92;;;;;;;3.31;87.55;102408.59;5028412;28;20046;-79
2022/12/15 12:18:51;;;;;;;3.20;1.73;;;;;;;3.30;87.69;102401.69;5027194;28;20690;-79
2022/12/15 12:21:25;;;;;;;3.97;1.70;;;;;;;3.30;87.53;102407.69;5027608;28;20045;-80
2022/12/15 12:24:01;;;;;;;3.40;2.00;;;;;;;3.29;86.88;102410.13;5029060;28;20042;-79
2022/12/15 12:26:34;;;;;;;2.30;1.70;;;;;;;3.27;87.51;102424.44;5030471;28;20649;-80
2022/12/15 12:29:12;;;;;;;2.83;1.92;;;;;;;3.25;87.37;102418.28;5021763;28;20491;-81
2022/12/15 12:31:51;;;;;;;3.53;2.20;;;;;;;3.25;87.35;102420.84;5009629;28;20054;-81
2022/12/15 12:34:27;;;;;;;4.60;1.33;;;;;;;3.23;87.40;102415.63;5006297;28;20538;-78
2022/12/15 12:36:58;;;;;;;3.47;1.52;;;;;;;3.23;87.92;102422.38;5011582;28;20046;-81
2022/12/15 12:39:29;;;;;;;2.65;1.60;;;;;;;3.24;87.76;102426.75;5010031;28;20042;-78
2022/12/15 12:42:05;;;;;;;4.40;1.83;;;;;;;3.24;87.19;102419.06;5007922;28;20058;-79
2022/12/15 12:44:37;;;;;;;2.88;1.52;;;;;;;3.26;87.14;102420.09;5009767;28;20049;-78
2022/12/15 12:47:13;;;;;;;3.42;1.92;;;;;;;3.26;88.05;102421.00;5002400;28;20058;-78
2022/12/15 12:49:46;;;;;;;2.85;1.52;;;;;;;3.28;87.37;102428.81;5008767;28;20661;-78
2022/12/15 12:52:23;;;;;;;2.70;1.80;;;;;;;3.27;87.41;102416.75;5005847;28;20065;-77
2022/12/15 12:55:02;;;;;;;3.60;1.25;;;;;;;3.26;87.34;102407.31;5009345;28;20052;-79
2022/12/15 12:57:37;;;;;;;3.08;1.75;;;;;;;3.24;86.78;102403.72;5007711;28;20436;-78
2022/12/15 13:00:21;;;;;;;4.72;1.20;;;;;;;3.25;87.39;102403.84;5009665;28;20076;-79
2022/12/15 13:03:16;;;;;;;4.32;1.83;;;;;;;3.23;86.52;102407.94;5006244;28;20452;-78
2022/12/15 13:05:50;;;;;;;2.58;1.42;;;;;;;3.25;86.15;102402.94;5002393;28;20082;-78
2022/12/15 13:08:50;;;;;;;6.47;1.77;;;;;;;3.23;85.94;102399.34;5006603;28;20120;-79
2022/12/15 13:12:05;;;;;;;4.10;1.77;;;;;;;3.24;85.87;102403.72;5005031;28;20543;-79
2022/12/15 13:14:45;;;;;;;4.22;2.03;;;;;;;3.24;85.58;102389.25;4903303;29;20183;-78
2022/12/15 13:17:19;;;;;;;2.00;1.33;;;;;;;3.27;85.82;102392.06;5000373;28;20057;-79
2022/12/15 13:20:29;;;;;;;3.40;1.40;;;;;;;3.27;85.09;102391.19;5010357;28;20050;-80
2022/12/15 13:23:35;;;;;;;4.75;1.60;;;;;;;3.26;85.88;102384.28;5005588;28;20050;-79
2022/12/15 13:26:14;;;;;;;4.10;1.95;;;;;;;3.24;84.80;102385.81;5006286;28;20613;-80
2022/12/15 13:28:51;;;;;;;3.17;1.70;;;;;;;3.23;85.52;102378.88;5008951;28;20050;-79
2022/12/15 13:31:36;;;;;;;2.40;1.58;;;;;;;3.22;84.58;102372.00;5005196;28;20034;-79
2022/12/15 13:34:30;;;;;;;2.97;1.88;;;;;;;3.17;85.50;102363.03;5001501;28;20046;-78
2022/12/15 13:36:59;;;;;;;;;;;;;;;3.19;85.20;102371.75;4989401;28;20673;-78
2022/12/15 13:39:51;;;;;;;2.95;1.63;;;;;;;3.19;85.20;102369.19;5006801;28;20335;-79
2022/12/15 13:42:32;;;;;;;2.33;1.30;;;;;;;3.16;85.26;102359.56;5005476;28;20057;-79
2022/12/15 13:45:30;;;;;;;3.40;1.80;;;;;;;3.15;84.75;102366.34;5003441;28;20869;-79
2022/12/15 13:48:01;;;;;;;3.75;1.95;;;;;;;3.18;84.89;102368.25;5006386;28;20081;-78
2022/12/15 13:50:44;;;;;;;2.47;1.85;;;;;;;3.18;84.35;102359.69;5009973;28;20084;-79
2022/12/15 13:53:19;;;;;;;2.65;1.77;;;;;;;3.16;85.51;102357.00;5005461;28;21186;-80
2022/12/15 13:55:57;;;;;;;3.28;1.55;;;;;;;3.12;84.97;102350.75;5008603;28;20804;-80
2022/12/15 13:58:27;;;;;;;2.63;1.73;;;;;;;3.11;85.98;102353.16;5005416;28;20050;-81
2022/12/15 14:00:58;;;;;;;3.38;1.80;;;;;;;3.09;85.56;102355.63;5001961;28;20624;-80
2022/12/15 14:03:28;;;;;;;2.47;1.75;;;;;;;3.09;84.94;102350.50;5001206;28;20092;-82
2022/12/15 14:05:59;;;;;;;4.15;1.42;;;;;;;3.10;84.71;102349.72;5006808;28;20735;-81
2022/12/15 14:08:31;;;;;;;3.22;1.70;;;;;;;3.09;84.13;102350.50;5006092;28;20042;-80
2022/12/15 14:11:01;;;;;;;3.08;1.50;;;;;;;3.05;84.44;102343.31;5007551;28;20050;-79
2022/12/15 14:13:31;;;;;;;2.85;1.83;;;;;;;3.09;84.41;102353.06;5003007;28;20057;-79
2022/12/15 14:16:03;;;;;;;2.22;1.40;;;;;;;3.09;84.26;102365.84;5006369;28;20622;-80
2022/12/15 14:18:35;;;;;;;2.45;1.52;;;;;;;3.11;82.96;102364.28;5007580;28;20704;-81
2022/12/15 14:21:08;;;;;;;3.33;1.77;;;;;;;3.12;83.52;102355.88;5007289;28;20049;-82
2022/12/15 14:23:42;;;;;;;3.45;1.40;;;;;;;3.16;82.77;102354.44;5004816;28;20042;-78